Terminal Aerodrome Forecast
Issued by NWS

Home | Current Version | Previous Version | Text Only | Print | Product List | Glossary On
Versions: 1 2 3 4 5 6 7 8 9 10 11 12 13 14 15 16 17 18 19 20 21 22 23 24 25 26 27 28 29 30 31 32 33 34 35
000
FTUS45 KPSR 212300
TAFIWA
TAF
KIWA 212340Z 2200/2224 VRB03KT P6SM FEW090 SCT250
      TEMPO 2200/2204 27006KT
     FM220600 09005KT P6SM FEW250
     FM221800 VRB03KT P6SM FEW250
      TEMPO 2220/2224 27005KT
      AMD LTD TO CLD VIS AND WIND 2203/2213=

USA.gov is the U.S. government's official web portal to all federal, state and local government web resources and services.